Time;durP1;ratioP1;P1;durP2;ratioP2;P2;SDS_P1;SDS_P2;PMS_P1;PMS_P2;Temp;Humidity;BMP_temperature;BMP_pressure;BME280_temperature;BME280_humidity;BME280_pressure;Samples;Min_cycle;Max_cycle;Signal;HPM_P1;HPM_P2
2022/03/23 00:01:24;;;;;;;61.28;43.35;;;;;;;;;;5031346;28;20099;-61
2022/03/23 00:03:51;;;;;;;63.15;43.70;;;;;;;;;;5023760;28;20053;-62
2022/03/23 00:06:17;;;;;;;70.43;45.92;;;;;;;;;;5023310;28;20041;-61
2022/03/23 00:08:44;;;;;;;65.72;44.75;;;;;;;;;;5027202;28;20033;-62
2022/03/23 00:11:10;;;;;;;66.85;48.45;;;;;;;;;;5031012;28;20053;-61
2022/03/23 00:13:36;;;;;;;65.47;46.30;;;;;;;;;;5029044;28;20041;-62
2022/03/23 00:16:04;;;;;;;72.60;48.70;;;;;;;;;;5029111;28;20523;-61
2022/03/23 00:18:30;;;;;;;60.85;44.40;;;;;;;;;;5030432;28;20067;-61
2022/03/23 00:20:57;;;;;;;64.85;44.78;;;;;;;;;;5029801;28;20453;-62
2022/03/23 00:23:23;;;;;;;65.80;45.38;;;;;;;;;;5029040;28;20107;-61
2022/03/23 00:25:49;;;;;;;63.38;44.15;;;;;;;;;;5030127;28;20370;-61
2022/03/23 00:28:15;;;;;;;61.80;43.20;;;;;;;;;;5029760;28;20147;-62
2022/03/23 00:30:42;;;;;;;56.50;42.13;;;;;;;;;;5060429;28;20132;-61
2022/03/23 00:33:08;;;;;;;58.72;42.25;;;;;;;;;;5030353;28;20045;-61
2022/03/23 00:35:35;;;;;;;61.58;42.42;;;;;;;;;;5030349;28;20045;-61
2022/03/23 00:38:01;;;;;;;70.18;43.40;;;;;;;;;;5029879;28;20045;-61
2022/03/23 00:40:28;;;;;;;59.28;41.75;;;;;;;;;;5030200;28;20057;-61
2022/03/23 00:42:55;;;;;;;59.20;40.83;;;;;;;;;;5029216;28;20068;-61
2022/03/23 00:45:21;;;;;;;58.50;41.22;;;;;;;;;;5028992;28;20445;-61
2022/03/23 00:47:48;;;;;;;67.05;41.45;;;;;;;;;;5030368;28;20144;-62
2022/03/23 00:50:14;;;;;;;58.70;40.60;;;;;;;;;;5030426;28;20057;-61
2022/03/23 00:52:42;;;;;;;54.50;38.78;;;;;;;;;;5060964;28;20048;-61
2022/03/23 00:55:09;;;;;;;54.45;38.17;;;;;;;;;;5030454;28;20037;-61
2022/03/23 00:57:37;;;;;;;50.88;35.65;;;;;;;;;;5029256;28;20464;-61
2022/03/23 01:00:06;;;;;;;47.00;34.55;;;;;;;;;;5027411;28;20057;-61
2022/03/23 01:02:34;;;;;;;48.45;36.08;;;;;;;;;;5062135;28;20053;-61
2022/03/23 01:05:01;;;;;;;55.03;35.75;;;;;;;;;;5028275;28;20041;-62
2022/03/23 01:07:27;;;;;;;51.95;37.30;;;;;;;;;;5028360;28;20183;-61
2022/03/23 01:09:53;;;;;;;51.90;36.28;;;;;;;;;;5024476;28;20358;-61
2022/03/23 01:12:19;;;;;;;48.53;36.70;;;;;;;;;;5020508;28;20512;-61
2022/03/23 01:14:45;;;;;;;48.13;34.13;;;;;;;;;;5029347;28;20060;-61
2022/03/23 01:17:12;;;;;;;41.00;30.98;;;;;;;;;;5029111;28;20717;-61
2022/03/23 01:19:38;;;;;;;44.20;32.67;;;;;;;;;;5027906;28;20092;-61
2022/03/23 01:22:06;;;;;;;40.72;31.02;;;;;;;;;;5062588;28;20041;-61
2022/03/23 01:24:32;;;;;;;38.15;30.17;;;;;;;;;;5033277;28;20110;-62
2022/03/23 01:27:00;;;;;;;39.28;30.17;;;;;;;;;;5032042;28;20140;-61
2022/03/23 01:29:26;;;;;;;34.63;27.27;;;;;;;;;;5035852;28;20132;-61
2022/03/23 01:31:52;;;;;;;34.28;26.80;;;;;;;;;;5051896;28;21562;-61
2022/03/23 01:34:18;;;;;;;36.92;27.75;;;;;;;;;;5052195;28;20041;-61
2022/03/23 01:36:45;;;;;;;39.25;29.75;;;;;;;;;;5034582;28;20056;-62
2022/03/23 01:39:12;;;;;;;36.47;28.40;;;;;;;;;;5034352;28;20128;-61
2022/03/23 01:41:39;;;;;;;35.38;27.65;;;;;;;;;;5051032;28;20099;-61
2022/03/23 01:44:12;;;;;;;34.88;26.13;;;;;;;;;;5052097;28;20041;-61
2022/03/23 01:46:39;;;;;;;35.92;28.15;;;;;;;;;;5067081;28;20055;-61
2022/03/23 01:49:05;;;;;;;42.13;31.02;;;;;;;;;;5051469;28;20041;-61
2022/03/23 01:51:31;;;;;;;42.83;30.08;;;;;;;;;;5053067;28;20107;-61
2022/03/23 01:53:57;;;;;;;40.60;29.73;;;;;;;;;;5053138;28;20387;-62
2022/03/23 01:56:24;;;;;;;40.67;31.45;;;;;;;;;;5052023;28;20047;-61
2022/03/23 01:58:50;;;;;;;39.60;29.52;;;;;;;;;;5051679;28;20037;-61
2022/03/23 02:01:17;;;;;;;41.35;31.23;;;;;;;;;;5048520;28;20033;-62
2022/03/23 02:03:43;;;;;;;39.95;30.05;;;;;;;;;;5033190;28;20094;-61
2022/03/23 02:06:09;;;;;;;41.38;32.10;;;;;;;;;;5052362;28;20033;-61
2022/03/23 02:08:35;;;;;;;38.85;28.85;;;;;;;;;;5049725;28;20056;-61
2022/03/23 02:11:01;;;;;;;45.90;32.30;;;;;;;;;;5050559;28;20098;-61
2022/03/23 02:13:27;;;;;;;47.25;34.38;;;;;;;;;;5048171;28;20365;-61
2022/03/23 02:15:53;;;;;;;45.30;33.42;;;;;;;;;;5046460;28;20450;-61
2022/03/23 02:18:20;;;;;;;51.28;36.53;;;;;;;;;;5049057;28;20976;-61
2022/03/23 02:20:46;;;;;;;44.65;32.28;;;;;;;;;;5050832;28;20526;-61
2022/03/23 02:23:12;;;;;;;39.17;30.85;;;;;;;;;;5051464;28;20411;-61
2022/03/23 02:25:40;;;;;;;43.40;31.15;;;;;;;;;;5051588;28;20045;-62
2022/03/23 02:28:06;;;;;;;38.13;28.90;;;;;;;;;;5067133;28;20056;-61
2022/03/23 02:30:33;;;;;;;46.42;33.17;;;;;;;;;;5029343;28;20053;-61
2022/03/23 02:33:01;;;;;;;38.58;29.83;;;;;;;;;;5062202;28;20053;-61
2022/03/23 02:35:27;;;;;;;39.88;30.23;;;;;;;;;;5063761;28;20045;-61
2022/03/23 02:37:54;;;;;;;43.75;32.60;;;;;;;;;;5029549;28;20048;-62
2022/03/23 02:40:20;;;;;;;45.28;32.33;;;;;;;;;;5031272;28;20116;-61
2022/03/23 02:42:46;;;;;;;41.03;31.23;;;;;;;;;;5030982;28;20096;-61
2022/03/23 02:45:13;;;;;;;41.40;31.20;;;;;;;;;;5028134;28;20171;-62
2022/03/23 02:47:41;;;;;;;39.28;28.15;;;;;;;;;;5031431;28;20125;-61
2022/03/23 02:50:07;;;;;;;36.17;26.27;;;;;;;;;;5031839;28;20049;-61
2022/03/23 02:52:34;;;;;;;26.60;21.02;;;;;;;;;;5031658;28;20480;-61
2022/03/23 03:03:37;;;;;;;49.20;34.63;;;;;;;;;;5030517;28;20457;-62
2022/03/23 03:06:04;;;;;;;38.38;31.38;;;;;;;;;;5030105;28;20049;-61
2022/03/23 03:08:45;;;;;;;38.00;30.05;;;;;;;;;;5063138;28;20038;-61
2022/03/23 03:11:12;;;;;;;33.38;27.67;;;;;;;;;;5028808;28;20055;-61
2022/03/23 03:13:40;;;;;;;35.75;30.30;;;;;;;;;;5030408;28;20045;-61
2022/03/23 03:16:06;;;;;;;35.20;30.08;;;;;;;;;;5030653;28;20173;-61
2022/03/23 03:18:33;;;;;;;42.67;32.03;;;;;;;;;;5013865;28;20076;-62
2022/03/23 03:21:00;;;;;;;39.90;31.65;;;;;;;;;;5025189;28;20056;-62
2022/03/23 03:23:27;;;;;;;33.88;28.10;;;;;;;;;;5024854;28;20051;-61
2022/03/23 03:25:53;;;;;;;40.05;33.22;;;;;;;;;;5028822;28;20041;-61
2022/03/23 03:28:19;;;;;;;39.38;29.60;;;;;;;;;;5062932;28;20420;-61
2022/03/23 03:30:46;;;;;;;29.55;26.42;;;;;;;;;;5045542;28;20590;-61
2022/03/23 03:33:12;;;;;;;27.85;24.92;;;;;;;;;;5050444;28;20045;-61
2022/03/23 03:35:38;;;;;;;24.90;22.45;;;;;;;;;;5050548;28;20047;-61
2022/03/23 03:38:04;;;;;;;27.13;24.33;;;;;;;;;;5065907;28;20087;-61
2022/03/23 03:40:30;;;;;;;26.63;23.83;;;;;;;;;;5029477;28;20059;-61
2022/03/23 03:42:56;;;;;;;27.52;24.70;;;;;;;;;;5050418;28;20060;-61
2022/03/23 03:45:22;;;;;;;27.33;24.30;;;;;;;;;;5050160;28;20357;-61
2022/03/23 03:47:49;;;;;;;24.85;21.75;;;;;;;;;;5049965;28;20048;-61
2022/03/23 03:50:15;;;;;;;24.50;20.70;;;;;;;;;;5032078;28;20037;-61
2022/03/23 03:52:41;;;;;;;26.73;22.92;;;;;;;;;;5033052;28;20502;-61
2022/03/23 03:55:07;;;;;;;31.27;25.17;;;;;;;;;;5049886;28;20457;-61
2022/03/23 03:57:34;;;;;;;25.08;22.45;;;;;;;;;;5049821;28;20073;-61
2022/03/23 04:00:00;;;;;;;33.80;25.58;;;;;;;;;;5050877;28;20041;-62
2022/03/23 04:02:26;;;;;;;31.33;23.20;;;;;;;;;;5049175;28;20056;-62
2022/03/23 04:04:52;;;;;;;34.67;25.80;;;;;;;;;;5065340;28;20052;-61
2022/03/23 04:07:18;;;;;;;38.22;28.95;;;;;;;;;;5050439;28;20045;-62
2022/03/23 04:09:45;;;;;;;44.72;31.13;;;;;;;;;;5048955;28;20045;-61
2022/03/23 04:12:11;;;;;;;47.45;31.95;;;;;;;;;;5049560;28;20101;-61
2022/03/23 04:14:37;;;;;;;49.13;32.35;;;;;;;;;;5032335;28;20040;-62
2022/03/23 04:17:04;;;;;;;47.67;34.97;;;;;;;;;;5031313;28;20049;-61
2022/03/23 04:19:30;;;;;;;45.42;32.72;;;;;;;;;;5050259;28;20048;-62
2022/03/23 04:21:57;;;;;;;44.72;31.00;;;;;;;;;;5036814;28;20045;-61
2022/03/23 04:24:24;;;;;;;58.08;40.22;;;;;;;;;;5046813;28;20715;-62
2022/03/23 04:26:50;;;;;;;41.20;29.35;;;;;;;;;;5031465;28;20103;-61
2022/03/23 04:29:16;;;;;;;41.45;28.83;;;;;;;;;;5049711;28;20197;-62
2022/03/23 04:31:42;;;;;;;46.47;31.95;;;;;;;;;;5050681;28;20053;-61
2022/03/23 04:34:09;;;;;;;33.60;25.15;;;;;;;;;;5050459;28;20159;-61
2022/03/23 04:36:35;;;;;;;40.05;26.75;;;;;;;;;;5064984;28;20051;-62
2022/03/23 04:39:02;;;;;;;28.77;22.27;;;;;;;;;;5050406;28;20052;-61
2022/03/23 04:41:29;;;;;;;23.58;18.88;;;;;;;;;;5065435;28;20083;-61
2022/03/23 04:43:55;;;;;;;22.45;16.08;;;;;;;;;;5049701;28;20227;-61
2022/03/23 04:46:21;;;;;;;26.58;21.55;;;;;;;;;;5050865;28;20072;-62
2022/03/23 04:48:47;;;;;;;29.95;23.23;;;;;;;;;;5050069;28;20042;-61
2022/03/23 04:51:13;;;;;;;28.25;22.02;;;;;;;;;;5049742;28;20072;-62
2022/03/23 04:53:39;;;;;;;32.45;24.00;;;;;;;;;;5065250;28;20052;-61
2022/03/23 04:56:05;;;;;;;32.65;22.98;;;;;;;;;;5048298;28;20052;-61
2022/03/23 04:58:32;;;;;;;29.90;24.40;;;;;;;;;;5049503;28;20132;-61
2022/03/23 05:00:58;;;;;;;29.58;25.02;;;;;;;;;;5050097;28;20326;-61
2022/03/23 05:03:25;;;;;;;33.92;25.40;;;;;;;;;;5050149;28;20388;-60
2022/03/23 05:05:52;;;;;;;50.10;34.45;;;;;;;;;;5049450;28;20059;-61
2022/03/23 05:08:18;;;;;;;64.05;41.75;;;;;;;;;;5050045;28;20037;-61
2022/03/23 05:10:44;;;;;;;67.20;44.97;;;;;;;;;;5050514;28;20037;-61
2022/03/23 05:13:11;;;;;;;46.72;33.75;;;;;;;;;;5049162;28;20044;-61
2022/03/23 05:15:37;;;;;;;30.73;24.48;;;;;;;;;;5032479;28;20049;-61
2022/03/23 05:18:04;;;;;;;30.38;22.35;;;;;;;;;;5049914;28;20041;-61
2022/03/23 05:20:31;;;;;;;27.83;21.20;;;;;;;;;;5049360;28;20045;-61
2022/03/23 05:22:57;;;;;;;24.55;19.98;;;;;;;;;;5049622;28;20041;-61
2022/03/23 05:25:23;;;;;;;23.27;18.88;;;;;;;;;;5046422;28;20049;-61
2022/03/23 05:27:50;;;;;;;33.95;23.52;;;;;;;;;;5059026;28;20096;-62
2022/03/23 05:30:16;;;;;;;23.90;19.75;;;;;;;;;;5041364;28;20135;-61
2022/03/23 05:32:42;;;;;;;27.25;20.75;;;;;;;;;;5048389;28;20160;-61
2022/03/23 05:35:09;;;;;;;25.98;20.45;;;;;;;;;;5065497;28;20037;-61
2022/03/23 05:37:36;;;;;;;25.77;21.83;;;;;;;;;;5047116;28;20047;-61
2022/03/23 05:40:03;;;;;;;60.30;38.15;;;;;;;;;;5055074;28;20037;-61
2022/03/23 05:42:29;;;;;;;35.97;27.67;;;;;;;;;;5031333;28;20052;-61
2022/03/23 05:44:55;;;;;;;28.45;22.50;;;;;;;;;;5048366;28;20045;-64
2022/03/23 05:47:21;;;;;;;34.90;24.63;;;;;;;;;;5030765;28;20131;-61
2022/03/23 05:49:47;;;;;;;36.47;27.60;;;;;;;;;;5048922;28;20045;-61
2022/03/23 05:52:14;;;;;;;37.17;26.02;;;;;;;;;;5048504;28;20099;-61
2022/03/23 05:54:40;;;;;;;33.42;24.45;;;;;;;;;;5063836;28;20045;-61
2022/03/23 05:57:07;;;;;;;33.53;25.30;;;;;;;;;;5049800;28;20045;-62
2022/03/23 05:59:33;;;;;;;32.05;24.13;;;;;;;;;;5012618;28;20118;-61
2022/03/23 06:01:59;;;;;;;31.17;24.10;;;;;;;;;;5061905;28;20373;-61
2022/03/23 06:04:26;;;;;;;31.67;23.65;;;;;;;;;;5050866;28;20044;-61
2022/03/23 06:06:52;;;;;;;32.38;23.88;;;;;;;;;;5029080;28;20052;-61
2022/03/23 06:09:19;;;;;;;42.97;28.15;;;;;;;;;;5049195;28;20045;-62
2022/03/23 06:11:45;;;;;;;46.95;33.00;;;;;;;;;;5064938;28;20098;-62
2022/03/23 06:14:12;;;;;;;46.78;32.03;;;;;;;;;;5049321;28;20548;-62
2022/03/23 06:16:38;;;;;;;44.17;31.55;;;;;;;;;;5051089;28;20377;-62
2022/03/23 06:19:04;;;;;;;44.17;32.25;;;;;;;;;;5051458;28;20063;-62
2022/03/23 06:21:30;;;;;;;50.10;35.58;;;;;;;;;;5033820;28;20061;-63
2022/03/23 06:23:56;;;;;;;50.03;34.92;;;;;;;;;;5050840;28;20041;-62
2022/03/23 06:26:23;;;;;;;53.90;37.55;;;;;;;;;;5065695;28;20048;-63
2022/03/23 06:28:49;;;;;;;62.33;42.55;;;;;;;;;;5051816;28;20468;-62
2022/03/23 06:31:15;;;;;;;78.78;49.42;;;;;;;;;;5052511;28;20052;-62
2022/03/23 06:33:41;;;;;;;97.80;60.92;;;;;;;;;;5051177;28;20260;-62
2022/03/23 06:36:07;;;;;;;91.30;57.00;;;;;;;;;;5049873;28;20060;-62
2022/03/23 06:38:34;;;;;;;120.38;69.28;;;;;;;;;;5049886;28;20467;-62
2022/03/23 06:41:00;;;;;;;132.10;78.95;;;;;;;;;;5065026;28;20437;-63
2022/03/23 06:43:26;;;;;;;124.50;74.57;;;;;;;;;;5048138;28;20095;-63
2022/03/23 06:45:52;;;;;;;130.70;79.38;;;;;;;;;;5051248;28;20492;-62
2022/03/23 06:48:19;;;;;;;138.30;81.20;;;;;;;;;;5051060;28;20065;-63
2022/03/23 06:50:45;;;;;;;135.23;79.65;;;;;;;;;;5050865;28;20047;-63
2022/03/23 06:53:11;;;;;;;132.38;76.03;;;;;;;;;;5033148;28;20170;-63
2022/03/23 06:55:38;;;;;;;133.18;81.22;;;;;;;;;;5051500;28;20044;-63
2022/03/23 06:58:04;;;;;;;134.73;82.88;;;;;;;;;;5034349;28;20041;-63
2022/03/23 07:00:31;;;;;;;129.15;81.25;;;;;;;;;;5066392;28;20048;-63
2022/03/23 07:02:58;;;;;;;139.20;80.35;;;;;;;;;;5050905;28;20087;-63
2022/03/23 07:05:24;;;;;;;130.90;82.70;;;;;;;;;;5034281;28;20495;-63
2022/03/23 07:10:36;;;;;;;127.30;79.03;;;;;;;;;;5044264;28;20033;-62
2022/03/23 07:13:03;;;;;;;125.47;79.78;;;;;;;;;;5037282;28;20049;-63
2022/03/23 07:15:29;;;;;;;129.60;81.25;;;;;;;;;;5046637;28;20130;-62
2022/03/23 07:17:55;;;;;;;126.78;77.38;;;;;;;;;;5030416;28;20045;-63
2022/03/23 07:20:21;;;;;;;121.65;78.10;;;;;;;;;;5049883;28;20052;-62
2022/03/23 07:22:47;;;;;;;120.53;79.13;;;;;;;;;;5032112;28;20130;-63
2022/03/23 07:25:14;;;;;;;116.68;75.82;;;;;;;;;;5048271;28;20056;-62
2022/03/23 07:27:41;;;;;;;129.00;79.68;;;;;;;;;;5048947;28;20563;-63
2022/03/23 07:30:08;;;;;;;134.30;81.60;;;;;;;;;;5031661;28;20504;-62
2022/03/23 07:32:35;;;;;;;120.43;76.80;;;;;;;;;;5048371;28;20131;-63
2022/03/23 07:35:01;;;;;;;120.45;76.30;;;;;;;;;;5048456;28;20048;-62
2022/03/23 07:37:27;;;;;;;122.15;75.90;;;;;;;;;;5050465;28;20052;-62
2022/03/23 07:39:53;;;;;;;112.65;71.00;;;;;;;;;;5050534;28;20072;-63
2022/03/23 07:42:19;;;;;;;107.53;70.07;;;;;;;;;;5051436;28;20052;-63
2022/03/23 07:44:45;;;;;;;100.28;66.97;;;;;;;;;;5066706;28;20052;-63
2022/03/23 07:47:11;;;;;;;101.40;66.50;;;;;;;;;;5049694;28;20129;-62
2022/03/23 07:49:38;;;;;;;93.90;62.00;;;;;;;;;;5050471;28;20396;-63
2022/03/23 07:52:05;;;;;;;93.28;60.97;;;;;;;;;;5050056;28;20516;-63
2022/03/23 07:54:31;;;;;;;90.30;61.03;;;;;;;;;;5031664;28;20399;-62
2022/03/23 07:56:57;;;;;;;94.63;60.13;;;;;;;;;;5049852;28;20076;-63
2022/03/23 07:59:24;;;;;;;89.55;59.75;;;;;;;;;;5032580;28;20406;-63
2022/03/23 08:01:50;;;;;;;90.85;58.38;;;;;;;;;;5049005;28;20033;-63
2022/03/23 08:04:16;;;;;;;84.35;55.95;;;;;;;;;;5050215;28;20045;-63
2022/03/23 08:06:42;;;;;;;75.78;51.03;;;;;;;;;;5050202;28;20048;-62
2022/03/23 08:09:09;;;;;;;70.72;49.05;;;;;;;;;;5031547;28;20072;-63
2022/03/23 08:11:35;;;;;;;72.80;49.90;;;;;;;;;;5049172;28;20116;-63
2022/03/23 08:14:02;;;;;;;68.85;47.53;;;;;;;;;;5049661;28;20045;-63
2022/03/23 08:16:28;;;;;;;70.00;47.58;;;;;;;;;;5049072;28;20080;-62
2022/03/23 08:18:55;;;;;;;72.63;46.40;;;;;;;;;;5049669;28;20040;-62
2022/03/23 08:21:22;;;;;;;74.88;47.17;;;;;;;;;;5047926;28;20132;-62
2022/03/23 08:23:49;;;;;;;68.50;46.55;;;;;;;;;;5049610;28;20037;-62
2022/03/23 08:26:16;;;;;;;65.95;43.83;;;;;;;;;;5049416;28;20036;-63
2022/03/23 08:28:43;;;;;;;66.63;42.85;;;;;;;;;;5049598;28;20140;-63
2022/03/23 08:31:10;;;;;;;66.20;41.83;;;;;;;;;;5051061;28;20598;-63
2022/03/23 08:33:36;;;;;;;53.78;37.30;;;;;;;;;;5031188;28;20041;-63
2022/03/23 08:36:03;;;;;;;61.95;40.85;;;;;;;;;;5030603;28;20080;-63
2022/03/23 08:38:29;;;;;;;61.65;39.42;;;;;;;;;;5043366;28;20033;-62
2022/03/23 08:40:55;;;;;;;67.10;40.58;;;;;;;;;;5049991;28;20049;-63
2022/03/23 08:43:21;;;;;;;60.38;39.20;;;;;;;;;;5030680;28;20152;-63
2022/03/23 08:45:47;;;;;;;53.70;37.55;;;;;;;;;;5031455;28;20110;-63
2022/03/23 08:48:14;;;;;;;53.80;36.42;;;;;;;;;;5049318;28;20037;-63
2022/03/23 08:50:40;;;;;;;55.13;36.08;;;;;;;;;;5029178;28;20064;-63
2022/03/23 08:53:07;;;;;;;60.35;37.13;;;;;;;;;;5032098;28;20049;-63
2022/03/23 08:55:33;;;;;;;56.50;36.17;;;;;;;;;;5049304;28;20036;-63
2022/03/23 08:57:59;;;;;;;64.32;38.38;;;;;;;;;;5049269;28;20205;-63
2022/03/23 09:00:26;;;;;;;57.30;34.95;;;;;;;;;;5049169;28;20132;-63
2022/03/23 09:02:53;;;;;;;54.22;33.47;;;;;;;;;;5048380;28;20045;-63
2022/03/23 09:05:19;;;;;;;46.28;31.40;;;;;;;;;;5048331;28;20423;-63
2022/03/23 09:07:46;;;;;;;46.13;31.20;;;;;;;;;;5061955;28;20056;-63
2022/03/23 09:10:13;;;;;;;47.17;31.92;;;;;;;;;;5047511;28;20124;-63
2022/03/23 09:12:40;;;;;;;50.42;32.30;;;;;;;;;;5048172;28;20036;-63
2022/03/23 09:15:08;;;;;;;47.45;31.67;;;;;;;;;;5048968;28;20095;-63
2022/03/23 09:17:34;;;;;;;46.40;31.02;;;;;;;;;;5046519;28;20095;-63
2022/03/23 09:20:01;;;;;;;52.22;32.90;;;;;;;;;;5031602;28;20094;-63
2022/03/23 09:22:28;;;;;;;52.63;31.27;;;;;;;;;;5037036;28;20488;-62
2022/03/23 09:24:54;;;;;;;45.17;30.83;;;;;;;;;;5046794;28;20045;-63
2022/03/23 09:27:20;;;;;;;51.65;31.05;;;;;;;;;;5048728;28;20132;-62
2022/03/23 09:29:47;;;;;;;56.60;32.00;;;;;;;;;;5062838;28;20041;-63
2022/03/23 09:32:13;;;;;;;44.70;31.70;;;;;;;;;;5048085;28;20110;-63
2022/03/23 09:34:40;;;;;;;45.28;30.70;;;;;;;;;;5048911;28;20037;-63
2022/03/23 09:39:52;;;;;;;46.42;30.05;;;;;;;;;;5056693;28;20061;-62
2022/03/23 09:42:19;;;;;;;47.67;31.73;;;;;;;;;;5052039;28;20041;-63
2022/03/23 09:44:45;;;;;;;45.75;29.33;;;;;;;;;;5052398;28;20041;-63
2022/03/23 09:47:12;;;;;;;50.53;32.58;;;;;;;;;;5052083;28;20496;-62
2022/03/23 09:49:38;;;;;;;42.85;30.02;;;;;;;;;;5052081;28;20045;-63
2022/03/23 09:52:06;;;;;;;48.28;32.17;;;;;;;;;;5034910;28;20041;-63
2022/03/23 09:54:32;;;;;;;47.55;32.28;;;;;;;;;;5034780;28;20051;-63
2022/03/23 09:56:59;;;;;;;48.03;31.42;;;;;;;;;;5034783;28;20083;-63
2022/03/23 09:59:25;;;;;;;57.30;30.50;;;;;;;;;;5035124;28;20048;-63
2022/03/23 10:01:51;;;;;;;51.65;30.92;;;;;;;;;;5034301;28;20131;-63
2022/03/23 10:04:18;;;;;;;43.88;29.80;;;;;;;;;;5053329;28;20119;-63
2022/03/23 10:07:00;;;;;;;48.50;30.70;;;;;;;;;;5051303;28;20041;-63
2022/03/23 10:09:26;;;;;;;43.15;29.60;;;;;;;;;;5034012;28;20071;-63
2022/03/23 10:12:25;;;;;;;46.35;29.50;;;;;;;;;;5052191;28;20041;-63
2022/03/23 10:15:21;;;;;;;48.03;30.17;;;;;;;;;;5050655;28;20131;-63
2022/03/23 10:17:54;;;;;;;53.83;30.52;;;;;;;;;;5052156;28;20037;-64
2022/03/23 10:20:20;;;;;;;49.22;30.80;;;;;;;;;;5053274;28;20045;-63
2022/03/23 10:22:47;;;;;;;52.42;34.35;;;;;;;;;;5051252;28;20064;-64
2022/03/23 10:25:14;;;;;;;47.08;29.08;;;;;;;;;;5070446;28;20040;-63
2022/03/23 10:27:40;;;;;;;45.95;30.00;;;;;;;;;;5034076;28;20037;-64
2022/03/23 10:30:07;;;;;;;42.05;28.88;;;;;;;;;;5050487;28;20049;-63
2022/03/23 10:32:34;;;;;;;49.60;29.02;;;;;;;;;;5046491;28;20476;-63
2022/03/23 10:35:01;;;;;;;44.15;29.58;;;;;;;;;;5048879;28;20424;-62
2022/03/23 10:37:28;;;;;;;43.42;28.40;;;;;;;;;;5051831;28;20365;-63
2022/03/23 10:39:56;;;;;;;46.17;27.73;;;;;;;;;;5051148;28;20040;-63
2022/03/23 10:42:24;;;;;;;46.90;29.83;;;;;;;;;;5048130;28;20564;-63
2022/03/23 10:44:51;;;;;;;41.55;28.80;;;;;;;;;;5051535;28;20488;-63
2022/03/23 10:47:28;;;;;;;42.88;28.73;;;;;;;;;;5051146;28;20487;-63
2022/03/23 10:49:54;;;;;;;41.17;25.65;;;;;;;;;;5063809;28;20033;-63
2022/03/23 10:52:21;;;;;;;44.55;26.65;;;;;;;;;;5015960;28;20476;-63
2022/03/23 10:55:01;;;;;;;40.83;27.42;;;;;;;;;;5050443;28;20052;-63
2022/03/23 10:57:44;;;;;;;39.75;27.35;;;;;;;;;;5048457;28;20044;-63
2022/03/23 11:00:17;;;;;;;36.42;24.77;;;;;;;;;;5067225;28;20188;-63
2022/03/23 11:02:46;;;;;;;37.55;24.30;;;;;;;;;;5033885;28;20551;-63
2022/03/23 11:05:13;;;;;;;38.58;25.25;;;;;;;;;;5051624;28;20053;-63
2022/03/23 11:07:40;;;;;;;35.03;24.40;;;;;;;;;;5067220;28;20045;-63
2022/03/23 11:15:46;;;;;;;34.25;24.75;;;;;;;;;;5052382;28;20121;-64
2022/03/23 11:18:15;;;;;;;39.78;25.40;;;;;;;;;;5051154;28;21305;-64
2022/03/23 11:20:51;;;;;;;32.35;23.60;;;;;;;;;;5051413;28;20037;-64
2022/03/23 11:23:28;;;;;;;33.15;22.55;;;;;;;;;;5051337;28;20095;-64
2022/03/23 11:25:56;;;;;;;32.75;23.52;;;;;;;;;;5051038;28;20110;-64
2022/03/23 11:28:22;;;;;;;35.13;24.15;;;;;;;;;;5033975;28;20045;-63
2022/03/23 11:30:49;;;;;;;31.35;24.27;;;;;;;;;;5051577;28;20091;-64
2022/03/23 11:33:16;;;;;;;31.05;24.13;;;;;;;;;;5064422;28;20067;-64
2022/03/23 11:35:49;;;;;;;32.38;23.58;;;;;;;;;;5051541;28;20043;-64
2022/03/23 11:38:17;;;;;;;30.13;24.15;;;;;;;;;;5064998;28;20144;-64
2022/03/23 11:40:44;;;;;;;34.65;24.42;;;;;;;;;;5051401;28;20064;-64
2022/03/23 11:43:11;;;;;;;30.08;23.95;;;;;;;;;;5064782;28;20063;-63
2022/03/23 11:45:39;;;;;;;32.05;24.63;;;;;;;;;;5051661;28;20576;-64
2022/03/23 11:48:10;;;;;;;30.70;23.08;;;;;;;;;;5051910;28;20399;-64
2022/03/23 11:50:42;;;;;;;30.75;22.20;;;;;;;;;;5051968;28;20045;-63
2022/03/23 11:53:18;;;;;;;28.23;20.42;;;;;;;;;;5034559;28;20499;-64
2022/03/23 11:55:50;;;;;;;29.23;21.65;;;;;;;;;;5053981;28;20043;-64
2022/03/23 11:58:21;;;;;;;26.45;21.63;;;;;;;;;;5052165;28;20047;-64
2022/03/23 12:00:54;;;;;;;28.30;21.88;;;;;;;;;;5051302;28;20071;-64
2022/03/23 12:03:39;;;;;;;28.33;21.13;;;;;;;;;;5052217;28;20550;-64
2022/03/23 12:06:09;;;;;;;27.65;21.17;;;;;;;;;;5052139;28;20049;-64
2022/03/23 12:08:47;;;;;;;29.15;21.40;;;;;;;;;;5052891;28;20041;-64
2022/03/23 12:11:31;;;;;;;26.08;20.17;;;;;;;;;;5051672;28;20566;-64
2022/03/23 12:13:58;;;;;;;28.33;20.95;;;;;;;;;;5051315;28;20127;-64
2022/03/23 12:16:43;;;;;;;28.55;20.83;;;;;;;;;;5051913;28;20033;-64
2022/03/23 12:19:10;;;;;;;30.02;21.48;;;;;;;;;;5051546;28;20037;-64
2022/03/23 12:21:48;;;;;;;28.65;21.13;;;;;;;;;;5051175;28;20049;-64
2022/03/23 12:24:18;;;;;;;28.52;21.20;;;;;;;;;;5051996;28;20045;-63
2022/03/23 12:26:49;;;;;;;28.63;20.40;;;;;;;;;;5051794;28;20048;-63
2022/03/23 12:29:22;;;;;;;27.27;20.33;;;;;;;;;;5050505;28;20041;-64
2022/03/23 12:31:48;;;;;;;27.20;20.40;;;;;;;;;;5051659;28;20045;-64
2022/03/23 12:34:16;;;;;;;28.02;19.75;;;;;;;;;;5033361;28;20124;-64
2022/03/23 12:37:00;;;;;;;24.50;19.10;;;;;;;;;;5050700;28;20045;-63
2022/03/23 12:39:31;;;;;;;28.45;21.50;;;;;;;;;;5033499;28;20136;-64
2022/03/23 12:41:59;;;;;;;27.38;20.00;;;;;;;;;;5050655;28;20349;-63
2022/03/23 12:44:29;;;;;;;29.75;21.27;;;;;;;;;;5050669;28;20043;-64
2022/03/23 12:46:56;;;;;;;30.75;21.33;;;;;;;;;;5048636;28;20049;-64
2022/03/23 12:58:02;;;;;;;23.20;16.98;;;;;;;;;;5051023;28;20049;-64
2022/03/23 13:00:30;;;;;;;25.58;16.30;;;;;;;;;;5050992;28;20037;-64
2022/03/23 13:03:23;;;;;;;23.77;15.23;;;;;;;;;;5052596;28;20037;-64
2022/03/23 13:06:02;;;;;;;20.05;13.52;;;;;;;;;;5030225;28;20491;-64
2022/03/23 13:08:30;;;;;;;19.60;13.20;;;;;;;;;;5033511;28;20392;-64
2022/03/23 13:10:58;;;;;;;19.40;13.38;;;;;;;;;;5047555;28;20494;-64
2022/03/23 13:13:25;;;;;;;22.52;13.88;;;;;;;;;;5050955;28;20045;-63
2022/03/23 13:15:52;;;;;;;19.70;12.98;;;;;;;;;;5051631;28;20480;-64
2022/03/23 13:18:24;;;;;;;24.48;13.07;;;;;;;;;;5054352;28;20041;-63
2022/03/23 13:20:51;;;;;;;19.58;12.25;;;;;;;;;;5055312;28;20441;-63
2022/03/23 13:23:19;;;;;;;19.48;11.98;;;;;;;;;;5055139;28;20040;-64
2022/03/23 13:25:46;;;;;;;19.95;13.07;;;;;;;;;;5054351;28;20484;-63
2022/03/23 13:28:13;;;;;;;24.38;14.48;;;;;;;;;;5054689;28;20068;-63
2022/03/23 13:30:40;;;;;;;19.92;13.13;;;;;;;;;;5054110;28;20048;-63
2022/03/23 13:33:15;;;;;;;23.55;12.50;;;;;;;;;;5054991;28;20053;-63
2022/03/23 13:35:44;;;;;;;24.65;13.15;;;;;;;;;;5054557;28;20044;-63
2022/03/23 13:38:10;;;;;;;23.60;13.48;;;;;;;;;;5036240;28;20044;-63
2022/03/23 13:43:42;;;;;;;21.00;12.52;;;;;;;;;;5054133;28;20048;-63
2022/03/23 13:46:08;;;;;;;21.48;12.40;;;;;;;;;;5036319;28;20059;-64
2022/03/23 13:48:38;;;;;;;21.23;12.57;;;;;;;;;;5054272;28;20080;-64
2022/03/23 13:51:04;;;;;;;21.10;10.27;;;;;;;;;;5054398;28;20053;-63
2022/03/23 13:53:30;;;;;;;26.77;11.77;;;;;;;;;;5053754;28;20148;-63
2022/03/23 13:55:57;;;;;;;23.02;12.63;;;;;;;;;;5054480;28;20044;-63
2022/03/23 13:58:24;;;;;;;19.98;11.43;;;;;;;;;;5053950;28;20452;-63
2022/03/23 14:00:53;;;;;;;20.63;12.18;;;;;;;;;;5035774;28;20037;-63
2022/03/23 14:03:20;;;;;;;26.25;11.88;;;;;;;;;;5054301;28;20041;-63
2022/03/23 14:06:05;;;;;;;19.17;11.50;;;;;;;;;;5054116;28;20033;-64
2022/03/23 14:08:36;;;;;;;23.90;11.73;;;;;;;;;;5054243;28;20044;-63
2022/03/23 14:11:04;;;;;;;21.95;11.77;;;;;;;;;;5054215;28;20136;-63
2022/03/23 14:13:30;;;;;;;26.35;11.98;;;;;;;;;;5035430;28;20087;-63
2022/03/23 14:15:57;;;;;;;20.05;11.30;;;;;;;;;;5054152;28;20049;-64
2022/03/23 14:18:24;;;;;;;21.17;12.88;;;;;;;;;;5036026;28;20099;-63
2022/03/23 14:20:52;;;;;;;16.38;11.95;;;;;;;;;;5053632;28;20476;-63
2022/03/23 14:23:20;;;;;;;18.65;11.75;;;;;;;;;;5053990;28;20369;-63
2022/03/23 14:25:50;;;;;;;20.85;13.07;;;;;;;;;;5053959;28;20047;-64
2022/03/23 14:28:19;;;;;;;20.35;14.45;;;;;;;;;;5051686;28;20079;-64
2022/03/23 14:30:47;;;;;;;29.70;15.20;;;;;;;;;;5053477;28;20041;-63
2022/03/23 14:33:18;;;;;;;20.23;13.13;;;;;;;;;;5053546;28;20489;-63
2022/03/23 14:35:44;;;;;;;24.08;14.48;;;;;;;;;;5053219;28;20104;-63
2022/03/23 14:38:12;;;;;;;21.55;15.48;;;;;;;;;;5054460;28;20045;-76
2022/03/23 14:40:45;;;;;;;26.98;15.32;;;;;;;;;;5051877;28;20112;-64
2022/03/23 14:43:27;;;;;;;24.90;15.82;;;;;;;;;;5051112;28;20179;-64
2022/03/23 14:45:53;;;;;;;26.55;16.50;;;;;;;;;;5051839;28;20045;-64
2022/03/23 14:48:23;;;;;;;23.33;15.52;;;;;;;;;;5051503;28;20632;-64
2022/03/23 14:50:50;;;;;;;22.23;14.95;;;;;;;;;;5052125;28;20053;-64